createdAt,value
2022-11-03T00:00:36.428Z,0.00
2022-11-03T00:01:36.503Z,0.00
2022-11-03T00:02:36.444Z,0.00
2022-11-03T00:03:36.417Z,0.00
2022-11-03T00:04:36.388Z,0.00
2022-11-03T00:05:36.378Z,0.00
2022-11-03T00:06:36.366Z,0.00
2022-11-03T00:07:36.369Z,0.00
2022-11-03T00:08:36.360Z,0.00
2022-11-03T00:09:36.340Z,0.00
2022-11-03T00:10:36.328Z,0.00
2022-11-03T00:11:36.318Z,0.00
2022-11-03T00:12:36.298Z,0.00
2022-11-03T00:13:36.317Z,0.00
2022-11-03T00:14:36.279Z,0.00
2022-11-03T00:15:36.281Z,0.00
2022-11-03T00:16:36.259Z,0.00
2022-11-03T00:17:36.249Z,0.00
2022-11-03T00:18:36.252Z,0.00
2022-11-03T00:19:36.234Z,0.00
2022-11-03T00:20:36.212Z,0.00
2022-11-03T00:21:36.220Z,0.00
2022-11-03T00:22:36.193Z,0.00
2022-11-03T00:23:36.210Z,0.00
2022-11-03T00:24:36.182Z,0.00
2022-11-03T00:25:36.172Z,0.00
2022-11-03T00:26:36.153Z,0.00
2022-11-03T00:27:36.153Z,0.00
2022-11-03T00:28:36.153Z,0.00
2022-11-03T00:29:36.130Z,0.00
2022-11-03T00:30:36.114Z,0.00
2022-11-03T00:31:36.104Z,0.00
2022-11-03T00:32:36.095Z,0.00
2022-11-03T00:33:36.116Z,0.00
2022-11-03T00:34:36.076Z,0.00
2022-11-03T00:35:36.072Z,0.00
2022-11-03T00:36:36.057Z,0.00
2022-11-03T00:37:36.046Z,0.00
2022-11-03T00:38:36.066Z,0.00
2022-11-03T00:39:36.026Z,0.00
2022-11-03T00:40:36.007Z,0.00
2022-11-03T00:41:35.997Z,0.00
2022-11-03T00:42:35.995Z,0.00
2022-11-03T00:43:35.997Z,0.00
2022-11-03T00:44:35.967Z,0.00
2022-11-03T00:45:35.968Z,0.00
2022-11-03T00:46:36.067Z,0.00
2022-11-03T00:47:35.939Z,0.00
2022-11-03T00:48:35.943Z,0.00
2022-11-03T00:49:35.917Z,0.00
2022-11-03T00:50:35.900Z,0.00
2022-11-03T00:51:35.900Z,0.00
2022-11-03T00:52:35.891Z,0.00
2022-11-03T00:53:35.899Z,0.00
2022-11-03T00:54:35.859Z,0.00
2022-11-03T00:55:35.858Z,0.00
2022-11-03T00:56:35.851Z,0.00
2022-11-03T00:57:35.835Z,0.00
2022-11-03T00:58:35.842Z,0.00
2022-11-03T00:59:35.813Z,0.00
2022-11-03T01:00:35.792Z,0.00
2022-11-03T01:01:40.595Z,0.00
2022-11-03T01:02:36.888Z,0.00
2022-11-03T01:03:35.801Z,0.00
2022-11-03T01:04:35.810Z,0.00
2022-11-03T01:05:35.751Z,0.00
2022-11-03T01:06:35.735Z,0.00
2022-11-03T01:07:35.739Z,0.00
2022-11-03T01:08:35.734Z,0.00
2022-11-03T01:09:35.715Z,0.00
2022-11-03T01:10:35.702Z,0.00
2022-11-03T01:11:35.695Z,0.00
2022-11-03T01:12:35.676Z,0.00
2022-11-03T01:13:35.689Z,0.00
2022-11-03T01:14:35.654Z,0.00
2022-11-03T01:15:35.648Z,0.00
2022-11-03T01:16:35.627Z,0.00
2022-11-03T01:17:35.627Z,0.00
2022-11-03T01:18:35.626Z,0.00
2022-11-03T01:19:35.627Z,0.00
2022-11-03T01:20:35.592Z,0.00
2022-11-03T01:21:35.596Z,0.00
2022-11-03T01:22:35.568Z,0.00
2022-11-03T01:23:35.594Z,0.00
2022-11-03T01:24:35.551Z,0.00
2022-11-03T01:25:35.546Z,0.00
2022-11-03T01:26:35.530Z,0.00
2022-11-03T01:27:35.520Z,0.00
2022-11-03T01:28:35.530Z,0.00
2022-11-03T01:29:35.501Z,0.00
2022-11-03T01:30:35.489Z,0.00
2022-11-03T01:31:35.481Z,0.00
2022-11-03T01:32:35.465Z,0.00
2022-11-03T01:33:35.490Z,0.00
2022-11-03T01:34:35.441Z,0.00
2022-11-03T01:35:35.453Z,0.00
2022-11-03T01:36:35.428Z,0.00
2022-11-03T01:37:35.423Z,0.00
2022-11-03T01:38:35.414Z,0.00
2022-11-03T01:39:35.392Z,0.00
2022-11-03T01:40:35.385Z,0.00
2022-11-03T01:41:35.373Z,0.00
2022-11-03T01:42:35.365Z,0.00
2022-11-03T01:43:35.373Z,0.00
2022-11-03T01:44:35.344Z,0.00
2022-11-03T01:45:35.336Z,0.00
2022-11-03T01:46:35.324Z,0.00
2022-11-03T01:47:35.315Z,0.00
2022-11-03T01:48:35.296Z,0.00
2022-11-03T01:49:35.314Z,0.00
2022-11-03T01:50:35.275Z,0.00
2022-11-03T01:51:35.267Z,0.00
2022-11-03T01:52:35.257Z,0.00
2022-11-03T01:53:35.246Z,0.00
2022-11-03T01:54:35.258Z,0.00
2022-11-03T01:55:35.245Z,0.00
2022-11-03T01:56:35.218Z,0.00
2022-11-03T01:57:35.208Z,0.00
2022-11-03T01:58:35.198Z,0.00
2022-11-03T01:59:35.199Z,0.00
2022-11-03T02:00:35.180Z,0.00
2022-11-03T02:01:35.331Z,0.00
2022-11-03T02:02:35.254Z,0.00
2022-11-03T02:03:35.147Z,0.00
2022-11-03T02:04:35.159Z,0.00
2022-11-03T02:05:35.126Z,0.00
2022-11-03T02:06:35.119Z,0.00
2022-11-03T02:07:35.107Z,0.00
2022-11-03T02:08:35.101Z,0.00
2022-11-03T02:09:35.092Z,0.00
2022-11-03T02:10:35.071Z,0.00
2022-11-03T02:11:35.061Z,0.00
2022-11-03T02:12:35.052Z,0.00
2022-11-03T02:13:35.032Z,0.00
2022-11-03T02:14:35.060Z,0.00
2022-11-03T02:15:35.028Z,0.00
2022-11-03T02:16:35.012Z,0.00
2022-11-03T02:17:34.996Z,0.00
2022-11-03T02:18:34.993Z,0.00
2022-11-03T02:19:34.993Z,0.00
2022-11-03T02:20:34.974Z,0.00
2022-11-03T02:21:34.955Z,0.00
2022-11-03T02:22:34.944Z,0.00
2022-11-03T02:23:34.935Z,0.00
2022-11-03T02:24:34.945Z,0.00
2022-11-03T02:25:34.913Z,0.00
2022-11-03T02:26:34.906Z,0.00
2022-11-03T02:27:34.895Z,0.00
2022-11-03T02:28:34.885Z,0.00
2022-11-03T02:29:34.908Z,0.00
2022-11-03T02:30:34.874Z,0.00
2022-11-03T02:31:34.886Z,0.00
2022-11-03T02:32:34.848Z,0.00
2022-11-03T02:33:34.827Z,0.00
2022-11-03T02:34:34.846Z,0.00
2022-11-03T02:35:34.811Z,0.00
2022-11-03T02:36:34.807Z,0.00
2022-11-03T02:37:34.812Z,0.00
2022-11-03T02:38:34.779Z,0.00
2022-11-03T02:39:34.788Z,0.00
2022-11-03T02:40:34.768Z,0.00
2022-11-03T02:41:34.749Z,0.00
2022-11-03T02:42:34.739Z,0.00
2022-11-03T02:43:34.721Z,0.00
2022-11-03T02:44:34.741Z,0.00
2022-11-03T02:45:34.705Z,0.00
2022-11-03T02:46:34.701Z,0.00
2022-11-03T02:47:34.693Z,0.00
2022-11-03T02:48:34.673Z,0.00
2022-11-03T02:49:34.673Z,0.00
2022-11-03T02:50:34.664Z,0.00
2022-11-03T02:51:34.643Z,0.00
2022-11-03T02:52:34.634Z,0.00
2022-11-03T02:53:34.613Z,0.00
2022-11-03T02:54:34.631Z,0.00
2022-11-03T02:55:34.594Z,0.00
2022-11-03T02:56:34.594Z,0.00
2022-11-03T02:57:34.576Z,0.00
2022-11-03T02:58:34.583Z,0.00
2022-11-03T02:59:34.575Z,0.00
2022-11-03T03:00:34.554Z,0.00
2022-11-03T03:01:34.994Z,0.00
2022-11-03T03:02:34.621Z,0.00
2022-11-03T03:03:34.516Z,0.00
2022-11-03T03:04:34.517Z,0.00
2022-11-03T03:05:34.496Z,0.00
2022-11-03T03:06:34.489Z,0.00
2022-11-03T03:07:34.467Z,0.00
2022-11-03T03:08:34.457Z,0.00
2022-11-03T03:09:34.467Z,0.00
2022-11-03T03:10:34.457Z,0.00
2022-11-03T03:11:34.433Z,0.00
2022-11-03T03:12:34.426Z,0.00
2022-11-03T03:13:34.408Z,0.00
2022-11-03T03:14:34.419Z,0.00
2022-11-03T03:15:34.388Z,0.00
2022-11-03T03:16:34.416Z,0.00
2022-11-03T03:17:34.369Z,0.00
2022-11-03T03:18:34.368Z,0.00
2022-11-03T03:19:34.370Z,0.00
2022-11-03T03:20:34.340Z,0.00
2022-11-03T03:21:34.321Z,0.00
2022-11-03T03:22:34.319Z,0.00
2022-11-03T03:23:34.314Z,0.00
2022-11-03T03:24:34.312Z,0.00
2022-11-03T03:25:34.273Z,0.00
2022-11-03T03:26:34.285Z,0.00
2022-11-03T03:27:34.270Z,0.00
2022-11-03T03:28:34.254Z,0.00
2022-11-03T03:29:34.257Z,0.00
2022-11-03T03:30:34.237Z,0.00
2022-11-03T03:31:34.215Z,0.00
2022-11-03T03:32:34.211Z,0.00
2022-11-03T03:33:34.196Z,0.00
2022-11-03T03:34:36.032Z,0.00
2022-11-03T03:35:34.177Z,0.00
2022-11-03T03:36:34.166Z,0.00
2022-11-03T03:37:34.155Z,0.00
2022-11-03T03:38:34.158Z,0.00
2022-11-03T03:39:34.156Z,0.00
2022-11-03T03:40:34.127Z,0.00
2022-11-03T03:41:34.107Z,0.00
2022-11-03T03:42:34.109Z,0.00
2022-11-03T03:43:34.087Z,0.00
2022-11-03T03:44:34.099Z,0.00
2022-11-03T03:45:34.067Z,0.00
2022-11-03T03:46:34.066Z,0.00
2022-11-03T03:47:34.047Z,0.00
2022-11-03T03:48:34.039Z,0.00
2022-11-03T03:49:34.049Z,0.00
2022-11-03T03:50:34.020Z,0.00
2022-11-03T03:51:34.011Z,0.00
2022-11-03T03:52:34.002Z,0.00
2022-11-03T03:53:33.981Z,0.00
2022-11-03T03:54:33.991Z,0.00
2022-11-03T03:55:33.961Z,0.00
2022-11-03T03:56:33.960Z,0.00
2022-11-03T03:57:33.943Z,0.00
2022-11-03T03:58:33.932Z,0.00
2022-11-03T03:59:33.944Z,0.00
2022-11-03T04:00:33.913Z,0.00
2022-11-03T04:01:34.043Z,0.00
2022-11-03T04:02:33.925Z,0.00
2022-11-03T04:03:33.880Z,0.00
2022-11-03T04:04:33.892Z,0.00
2022-11-03T04:05:33.900Z,0.00
2022-11-03T04:06:33.955Z,0.00
2022-11-03T04:07:36.704Z,0.00
2022-11-03T04:08:34.831Z,0.00
2022-11-03T04:09:33.836Z,0.00
2022-11-03T04:10:33.806Z,0.00
2022-11-03T04:11:33.794Z,0.00
2022-11-03T04:12:33.788Z,0.00
2022-11-03T04:13:33.794Z,0.00
2022-11-03T04:14:33.785Z,0.00
2022-11-03T04:15:33.750Z,0.00
2022-11-03T04:16:33.750Z,0.00
2022-11-03T04:17:33.730Z,0.00
2022-11-03T04:18:33.729Z,0.00
2022-11-03T04:19:33.727Z,0.00
2022-11-03T04:20:33.707Z,0.00
2022-11-03T04:21:33.701Z,0.00
2022-11-03T04:22:33.698Z,0.00
2022-11-03T04:23:33.667Z,0.00
2022-11-03T04:24:33.677Z,0.00
2022-11-03T04:25:33.646Z,0.00
2022-11-03T04:26:33.651Z,0.00
2022-11-03T04:27:33.627Z,0.00
2022-11-03T04:28:33.641Z,0.00
2022-11-03T04:29:33.620Z,0.00
2022-11-03T04:30:33.600Z,0.00
2022-11-03T04:31:33.590Z,0.00
2022-11-03T04:32:33.587Z,0.00
2022-11-03T04:33:33.569Z,0.00
2022-11-03T04:34:33.571Z,0.00
2022-11-03T04:35:33.541Z,0.00
2022-11-03T04:36:33.535Z,0.00
2022-11-03T04:37:33.527Z,0.00
2022-11-03T04:38:33.514Z,0.00
2022-11-03T04:39:33.528Z,0.00
2022-11-03T04:40:33.511Z,0.00
2022-11-03T04:41:33.473Z,0.00
2022-11-03T04:42:33.472Z,0.00
2022-11-03T04:43:33.454Z,0.00
2022-11-03T04:44:33.466Z,0.00
2022-11-03T04:45:33.437Z,0.00
2022-11-03T04:46:33.432Z,0.00
2022-11-03T04:47:33.415Z,0.00
2022-11-03T04:48:33.406Z,0.00
2022-11-03T04:49:33.405Z,0.00
2022-11-03T04:50:33.385Z,0.00
2022-11-03T04:51:33.367Z,0.00
2022-11-03T04:52:33.376Z,0.00
2022-11-03T04:53:33.349Z,0.00
2022-11-03T04:54:33.357Z,0.00
2022-11-03T04:55:33.329Z,0.00
2022-11-03T04:56:33.327Z,0.00
2022-11-03T04:57:33.307Z,0.00
2022-11-03T04:58:33.305Z,0.00
2022-11-03T04:59:33.309Z,0.00
2022-11-03T05:00:33.279Z,0.00
2022-11-03T05:01:33.459Z,0.00
2022-11-03T05:02:33.259Z,0.00
2022-11-03T05:03:33.241Z,0.00
2022-11-03T05:04:33.257Z,0.00
2022-11-03T05:05:33.221Z,0.00
2022-11-03T05:06:33.222Z,0.00
2022-11-03T05:07:33.201Z,0.00
2022-11-03T05:08:33.201Z,0.00
2022-11-03T05:09:33.211Z,0.00
2022-11-03T05:10:33.172Z,0.00
2022-11-03T05:11:33.160Z,0.00
2022-11-03T05:12:33.154Z,0.00
2022-11-03T05:13:33.133Z,0.00
2022-11-03T05:14:33.143Z,0.00
2022-11-03T05:15:33.121Z,0.00
2022-11-03T05:16:33.103Z,0.00
2022-11-03T05:17:33.103Z,0.00
2022-11-03T05:18:33.096Z,0.00
2022-11-03T05:19:33.094Z,0.00
2022-11-03T05:20:35.965Z,0.00
2022-11-03T05:21:33.054Z,0.00
2022-11-03T05:22:33.047Z,0.00
2022-11-03T05:23:33.025Z,0.00
2022-11-03T05:24:33.051Z,0.00
2022-11-03T05:25:33.006Z,0.00
2022-11-03T05:26:33.016Z,0.00
2022-11-03T05:27:32.989Z,0.00
2022-11-03T05:28:32.987Z,0.00
2022-11-03T05:29:32.988Z,0.00
2022-11-03T05:30:32.966Z,0.00
2022-11-03T05:31:32.949Z,0.00
2022-11-03T05:32:32.942Z,0.00
2022-11-03T05:33:32.929Z,0.00
2022-11-03T05:34:32.938Z,0.00
2022-11-03T05:35:32.900Z,0.00
2022-11-03T05:36:32.900Z,0.00
2022-11-03T05:37:32.892Z,0.00
2022-11-03T05:38:32.878Z,0.00
2022-11-03T05:39:32.879Z,0.00
2022-11-03T05:40:32.858Z,0.00
2022-11-03T05:41:32.842Z,0.00
2022-11-03T05:42:32.868Z,0.00
2022-11-03T05:43:32.819Z,0.00
2022-11-03T05:44:32.832Z,0.00
2022-11-03T05:45:32.795Z,0.00
2022-11-03T05:46:32.797Z,0.00
2022-11-03T05:47:32.786Z,0.00
2022-11-03T05:48:32.772Z,0.00
2022-11-03T05:49:32.773Z,0.00
2022-11-03T05:50:32.752Z,0.00
2022-11-03T05:51:32.759Z,0.00
2022-11-03T05:52:32.735Z,0.00
2022-11-03T05:53:32.715Z,0.00
2022-11-03T05:54:32.693Z,1.00
2022-11-03T05:55:32.694Z,0.00
2022-11-03T05:56:32.694Z,0.00
2022-11-03T05:57:32.675Z,0.00
2022-11-03T05:58:32.664Z,0.00
2022-11-03T05:59:32.646Z,0.00
2022-11-03T06:00:32.637Z,1.00
2022-11-03T06:01:32.764Z,0.00
2022-11-03T06:02:32.623Z,3.00
2022-11-03T06:03:32.568Z,2.00
2022-11-03T06:04:32.549Z,1.00
2022-11-03T06:05:32.554Z,1.00
2022-11-03T06:06:32.781Z,2.00
2022-11-03T06:07:32.509Z,1.00
2022-11-03T06:08:32.509Z,1.00
2022-11-03T06:09:32.500Z,2.00
2022-11-03T06:10:32.510Z,2.00
2022-11-03T06:11:32.478Z,3.00
2022-11-03T06:12:32.469Z,3.00
2022-11-03T06:13:32.463Z,4.00
2022-11-03T06:14:32.437Z,4.00
2022-11-03T06:15:32.450Z,6.00
2022-11-03T06:16:32.419Z,5.00
2022-11-03T06:17:32.410Z,8.00
2022-11-03T06:18:32.399Z,6.00
2022-11-03T06:19:32.398Z,7.00
2022-11-03T06:20:32.398Z,7.00
2022-11-03T06:21:32.372Z,11.00
2022-11-03T06:22:32.358Z,9.00
2022-11-03T06:23:32.354Z,10.00
2022-11-03T06:24:32.340Z,16.00
2022-11-03T06:25:32.352Z,12.00
2022-11-03T06:26:32.313Z,14.00
2022-11-03T06:27:32.313Z,14.00
2022-11-03T06:28:32.284Z,16.00
2022-11-03T06:29:32.293Z,15.00
2022-11-03T06:30:32.361Z,17.00
2022-11-03T06:31:32.268Z,21.00
2022-11-03T06:32:32.253Z,21.00
2022-11-03T06:33:32.247Z,23.00
2022-11-03T06:34:32.232Z,24.00
2022-11-03T06:35:32.245Z,22.00
2022-11-03T06:36:32.216Z,26.00
2022-11-03T06:37:32.208Z,28.00
2022-11-03T06:38:32.187Z,27.00
2022-11-03T06:39:32.177Z,27.00
2022-11-03T06:40:32.190Z,30.00
2022-11-03T06:41:32.164Z,31.00
2022-11-03T06:42:32.336Z,37.00
2022-11-03T06:43:32.136Z,41.00
2022-11-03T06:44:32.129Z,39.00
2022-11-03T06:45:32.136Z,43.00
2022-11-03T06:46:32.099Z,47.00
2022-11-03T06:47:32.138Z,47.00
2022-11-03T06:48:32.081Z,52.00
2022-11-03T06:49:32.078Z,52.00
2022-11-03T06:50:32.074Z,50.00
2022-11-03T06:51:32.059Z,56.00
2022-11-03T06:52:32.044Z,57.00
2022-11-03T06:53:32.033Z,65.00
2022-11-03T06:54:32.019Z,63.00
2022-11-03T06:55:32.049Z,68.00
2022-11-03T06:56:31.992Z,69.00
2022-11-03T06:57:31.990Z,71.00
2022-11-03T06:58:31.994Z,72.00
2022-11-03T06:59:31.971Z,73.00
2022-11-03T07:00:34.601Z,78.00
2022-11-03T07:01:32.037Z,79.00
2022-11-03T07:02:32.007Z,81.00
2022-11-03T07:03:31.924Z,88.00
2022-11-03T07:04:31.915Z,86.00
2022-11-03T07:05:31.924Z,89.00
2022-11-03T07:06:31.891Z,89.00
2022-11-03T07:07:31.906Z,95.00
2022-11-03T07:08:31.875Z,100.00
2022-11-03T07:09:31.868Z,101.00
2022-11-03T07:10:31.877Z,108.00
2022-11-03T07:11:31.845Z,114.00
2022-11-03T07:12:31.825Z,118.00
2022-11-03T07:13:31.829Z,122.00
2022-11-03T07:14:31.803Z,128.00
2022-11-03T07:15:31.818Z,132.00
2022-11-03T07:16:31.795Z,132.00
2022-11-03T07:17:31.776Z,142.00
2022-11-03T07:18:31.758Z,144.00
2022-11-03T07:19:31.757Z,147.00
2022-11-03T07:20:31.758Z,148.00
2022-11-03T07:21:31.748Z,154.00
2022-11-03T07:22:31.720Z,159.00
2022-11-03T07:23:31.717Z,154.00
2022-11-03T07:24:31.699Z,157.00
2022-11-03T07:25:31.710Z,160.00
2022-11-03T07:26:31.680Z,166.00
2022-11-03T07:27:31.671Z,170.00
2022-11-03T07:28:31.650Z,176.00
2022-11-03T07:29:31.649Z,173.00
2022-11-03T07:30:31.650Z,173.00
2022-11-03T07:31:31.633Z,179.00
2022-11-03T07:32:31.623Z,186.00
2022-11-03T07:33:31.609Z,192.00
2022-11-03T07:34:31.596Z,201.00
2022-11-03T07:35:53.251Z,202.00
2022-11-03T07:36:32.572Z,204.00
2022-11-03T07:37:31.564Z,210.00
2022-11-03T07:38:31.553Z,213.00
2022-11-03T07:39:31.548Z,219.00
2022-11-03T07:40:31.575Z,220.00
2022-11-03T07:41:34.212Z,225.00
2022-11-03T07:42:31.505Z,229.00
2022-11-03T07:43:31.506Z,233.00
2022-11-03T07:44:31.489Z,234.00
2022-11-03T07:45:31.502Z,238.00
2022-11-03T07:46:31.472Z,244.00
2022-11-03T07:47:31.464Z,249.00
2022-11-03T07:48:31.447Z,255.00
2022-11-03T07:49:31.436Z,256.00
2022-11-03T07:50:31.447Z,256.00
2022-11-03T07:51:31.421Z,257.00
2022-11-03T07:52:31.398Z,258.00
2022-11-03T07:53:31.408Z,268.00
2022-11-03T07:54:31.381Z,273.00
2022-11-03T07:55:31.388Z,279.00
2022-11-03T07:56:31.422Z,284.00
2022-11-03T07:57:31.357Z,286.00
2022-11-03T07:58:31.343Z,286.00
2022-11-03T07:59:31.338Z,290.00
2022-11-03T08:00:31.340Z,300.00
2022-11-03T08:01:31.339Z,300.00
2022-11-03T08:02:31.498Z,304.00
2022-11-03T08:03:31.290Z,301.00
2022-11-03T08:04:31.283Z,303.00
2022-11-03T08:05:31.289Z,308.00
2022-11-03T08:06:31.260Z,311.00
2022-11-03T08:07:31.262Z,311.00
2022-11-03T08:08:31.235Z,310.00
2022-11-03T08:09:31.221Z,311.00
2022-11-03T08:10:31.223Z,319.00
2022-11-03T08:11:31.224Z,320.00
2022-11-03T08:12:31.202Z,319.00
2022-11-03T08:13:31.191Z,334.00
2022-11-03T08:14:31.174Z,339.00
2022-11-03T08:15:31.185Z,334.00
2022-11-03T08:16:31.153Z,335.00
2022-11-03T08:17:31.144Z,346.00
2022-11-03T08:18:31.124Z,345.00
2022-11-03T08:19:31.130Z,346.00
2022-11-03T08:20:31.127Z,363.00
2022-11-03T08:21:31.097Z,340.00
2022-11-03T08:22:31.087Z,337.00
2022-11-03T08:23:31.463Z,344.00
2022-11-03T08:24:31.064Z,342.00
2022-11-03T08:25:31.080Z,343.00
2022-11-03T08:26:31.037Z,355.00
2022-11-03T08:27:31.057Z,354.00
2022-11-03T08:28:31.020Z,369.00
2022-11-03T08:29:31.019Z,383.00
2022-11-03T08:30:31.019Z,387.00
2022-11-03T08:31:30.998Z,338.00
2022-11-03T08:32:30.987Z,342.00
2022-11-03T08:33:30.993Z,359.00
2022-11-03T08:34:30.977Z,382.00
2022-11-03T08:35:33.992Z,372.00
2022-11-03T08:36:31.032Z,329.00
2022-11-03T08:37:30.940Z,388.00
2022-11-03T08:38:30.918Z,347.00
2022-11-03T08:39:30.913Z,372.00
2022-11-03T08:40:30.915Z,377.00
2022-11-03T08:41:30.900Z,381.00
2022-11-03T08:42:30.872Z,409.00
2022-11-03T08:43:30.872Z,428.00
2022-11-03T08:44:30.857Z,432.00
2022-11-03T08:45:30.866Z,444.00
2022-11-03T08:46:30.833Z,449.00
2022-11-03T08:47:30.825Z,460.00
2022-11-03T08:48:30.815Z,479.00
2022-11-03T08:49:30.826Z,490.00
2022-11-03T08:50:30.811Z,512.00
2022-11-03T08:51:30.788Z,521.00
2022-11-03T08:52:30.765Z,523.00
2022-11-03T08:53:30.764Z,538.00
2022-11-03T08:54:30.792Z,550.00
2022-11-03T08:55:30.756Z,560.00
2022-11-03T08:56:30.727Z,569.00
2022-11-03T08:57:30.742Z,579.00
2022-11-03T08:58:30.706Z,598.00
2022-11-03T08:59:30.697Z,604.00
2022-11-03T09:00:30.710Z,613.00
2022-11-03T09:01:30.760Z,625.00
2022-11-03T09:02:30.711Z,630.00
2022-11-03T09:03:30.691Z,636.00
2022-11-03T09:04:30.639Z,627.00
2022-11-03T09:05:30.651Z,625.00
2022-11-03T09:06:30.638Z,624.00
2022-11-03T09:10:34.372Z,610.00
2022-11-03T09:11:30.578Z,611.00
2022-11-03T09:12:30.569Z,615.00
2022-11-03T09:13:30.551Z,610.00
2022-11-03T09:14:30.543Z,603.00
2022-11-03T09:15:30.563Z,590.00
2022-11-03T09:16:30.512Z,570.00
2022-11-03T09:17:30.511Z,551.00
2022-11-03T09:18:30.496Z,527.00
2022-11-03T09:19:30.494Z,503.00
2022-11-03T09:20:30.503Z,475.00
2022-11-03T09:21:30.474Z,452.00
2022-11-03T09:22:30.452Z,430.00
2022-11-03T09:23:30.446Z,421.00
2022-11-03T09:24:30.450Z,408.00
2022-11-03T09:25:30.445Z,400.00
2022-11-03T09:26:30.423Z,399.00
2022-11-03T09:27:30.404Z,403.00
2022-11-03T09:28:30.393Z,420.00
2022-11-03T09:29:51.520Z,430.00
2022-11-03T09:30:31.387Z,445.00
2022-11-03T09:31:30.358Z,459.00
2022-11-03T09:32:30.357Z,487.00
2022-11-03T09:33:30.348Z,510.00
2022-11-03T09:34:30.338Z,536.00
2022-11-03T09:35:30.339Z,576.00
2022-11-03T09:36:30.307Z,619.00
2022-11-03T09:37:30.303Z,666.00
2022-11-03T09:38:30.289Z,755.00
2022-11-03T09:39:30.278Z,790.00
2022-11-03T09:40:30.289Z,862.00
2022-11-03T09:41:53.750Z,859.00
2022-11-03T09:42:31.998Z,886.00
2022-11-03T09:43:30.242Z,883.00
2022-11-03T09:44:30.220Z,974.00
2022-11-03T09:45:30.243Z,963.00
2022-11-03T09:46:30.199Z,980.00
2022-11-03T09:47:30.193Z,908.00
2022-11-03T09:48:30.182Z,894.00
2022-11-03T09:49:30.184Z,891.00
2022-11-03T09:50:30.172Z,916.00
2022-11-03T09:51:30.152Z,889.00
2022-11-03T09:52:30.152Z,908.00
2022-11-03T09:53:30.144Z,968.00
2022-11-03T09:54:30.123Z,908.00
2022-11-03T09:55:30.133Z,901.00
2022-11-03T09:56:30.095Z,1054.00
2022-11-03T09:57:30.092Z,932.00
2022-11-03T09:58:30.076Z,916.00
2022-11-03T09:59:30.073Z,963.00
2022-11-03T10:00:30.077Z,1097.00
2022-11-03T10:01:30.176Z,1107.00
2022-11-03T10:02:30.114Z,1010.00
2022-11-03T10:03:30.028Z,975.00
2022-11-03T10:04:30.028Z,1006.00
2022-11-03T10:05:30.027Z,1079.00
2022-11-03T10:06:29.996Z,1100.00
2022-11-03T10:07:30.006Z,1074.00
2022-11-03T10:08:29.968Z,897.00
2022-11-03T10:09:29.977Z,1129.00
2022-11-03T10:10:29.969Z,993.00
2022-11-03T10:11:29.949Z,1155.00
2022-11-03T10:12:29.928Z,1260.00
2022-11-03T10:13:29.925Z,1266.00
2022-11-03T10:14:29.900Z,1110.00
2022-11-03T10:15:29.911Z,1178.00
2022-11-03T10:16:29.891Z,1061.00
2022-11-03T10:17:29.873Z,999.00
2022-11-03T10:18:29.870Z,942.00
2022-11-03T10:19:30.252Z,925.00
2022-11-03T10:20:29.853Z,950.00
2022-11-03T10:21:29.832Z,929.00
2022-11-03T10:22:29.814Z,921.00
2022-11-03T10:23:29.813Z,900.00
2022-11-03T10:24:29.794Z,848.00
2022-11-03T10:25:29.796Z,801.00
2022-11-03T10:26:29.784Z,775.00
2022-11-03T10:27:29.767Z,785.00
2022-11-03T10:28:29.765Z,763.00
2022-11-03T10:29:29.757Z,751.00
2022-11-03T10:30:32.581Z,726.00
2022-11-03T10:31:30.727Z,669.00
2022-11-03T10:32:29.725Z,732.00
2022-11-03T10:33:29.704Z,1540.00
2022-11-03T10:34:29.706Z,882.00
2022-11-03T10:35:29.686Z,960.00
2022-11-03T10:36:29.703Z,961.00
2022-11-03T10:37:29.657Z,1093.00
2022-11-03T10:38:29.660Z,731.00
2022-11-03T10:39:29.637Z,1685.00
2022-11-03T10:40:47.492Z,1132.00
2022-11-03T10:41:30.642Z,1041.00
2022-11-03T10:42:35.048Z,955.00
2022-11-03T10:43:30.592Z,802.00
2022-11-03T10:44:29.592Z,801.00
2022-11-03T10:45:29.580Z,1374.00
2022-11-03T10:46:49.278Z,1032.00
2022-11-03T10:47:30.673Z,953.00
2022-11-03T10:48:29.556Z,1049.00
2022-11-03T10:49:29.530Z,1038.00
2022-11-03T10:50:29.530Z,982.00
2022-11-03T10:51:29.544Z,917.00
2022-11-03T10:52:29.593Z,886.00
2022-11-03T10:53:29.498Z,838.00
2022-11-03T10:54:29.484Z,755.00
2022-11-03T10:55:29.506Z,678.00
2022-11-03T10:56:29.505Z,627.00
2022-11-03T10:57:29.546Z,575.00
2022-11-03T10:58:29.446Z,503.00
2022-11-03T10:59:29.426Z,439.00
2022-11-03T11:00:29.426Z,388.00
2022-11-03T11:01:29.572Z,357.00
2022-11-03T11:02:29.520Z,334.00
2022-11-03T11:03:29.385Z,325.00
2022-11-03T11:04:29.427Z,331.00
2022-11-03T11:05:29.357Z,338.00
2022-11-03T11:06:29.375Z,343.00
2022-11-03T11:07:29.339Z,338.00
2022-11-03T11:08:29.380Z,331.00
2022-11-03T11:09:29.322Z,347.00
2022-11-03T11:10:29.324Z,372.00
2022-11-03T11:11:29.321Z,397.00
2022-11-03T11:12:29.291Z,426.00
2022-11-03T11:13:29.276Z,451.00
2022-11-03T11:14:29.271Z,478.00
2022-11-03T11:15:29.328Z,500.00
2022-11-03T11:16:29.273Z,514.00
2022-11-03T11:17:29.234Z,507.00
2022-11-03T11:18:29.340Z,492.00
2022-11-03T11:19:29.221Z,471.00
2022-11-03T11:20:29.203Z,437.00
2022-11-03T11:21:32.000Z,425.00
2022-11-03T11:22:30.185Z,428.00
2022-11-03T11:23:29.219Z,416.00
2022-11-03T11:24:29.168Z,404.00
2022-11-03T11:25:29.156Z,413.00
2022-11-03T11:26:29.169Z,414.00
2022-11-03T11:27:29.143Z,410.00
2022-11-03T11:28:29.126Z,411.00
2022-11-03T11:29:29.108Z,410.00
2022-11-03T11:30:29.108Z,413.00
2022-11-03T11:31:29.104Z,428.00
2022-11-03T11:32:29.079Z,429.00
2022-11-03T11:33:29.070Z,437.00
2022-11-03T11:34:29.068Z,452.00
2022-11-03T11:35:29.039Z,464.00
2022-11-03T11:36:29.067Z,476.00
2022-11-03T11:37:29.027Z,481.00
2022-11-03T11:38:29.025Z,489.00
2022-11-03T11:39:29.020Z,492.00
2022-11-03T11:40:28.999Z,487.00
2022-11-03T11:41:28.996Z,459.00
2022-11-03T11:42:30.503Z,432.00
2022-11-03T11:43:28.960Z,412.00
2022-11-03T11:44:28.962Z,409.00
2022-11-03T11:45:28.939Z,415.00
2022-11-03T11:46:28.952Z,434.00
2022-11-03T11:47:28.915Z,442.00
2022-11-03T11:48:28.913Z,447.00
2022-11-03T11:49:28.903Z,445.00
2022-11-03T11:50:28.893Z,438.00
2022-11-03T11:51:28.906Z,434.00
2022-11-03T11:52:28.875Z,419.00
2022-11-03T11:53:31.846Z,404.00
2022-11-03T11:54:28.861Z,377.00
2022-11-03T11:55:28.837Z,355.00
2022-11-03T11:56:28.846Z,345.00
2022-11-03T11:57:28.807Z,341.00
2022-11-03T11:58:28.814Z,335.00
2022-11-03T11:59:28.811Z,330.00
2022-11-03T12:00:28.796Z,337.00
2022-11-03T12:01:28.847Z,346.00
2022-11-03T12:02:28.768Z,345.00
2022-11-03T12:03:28.812Z,346.00
2022-11-03T12:04:28.749Z,344.00
2022-11-03T12:05:28.728Z,334.00
2022-11-03T12:06:28.800Z,321.00
2022-11-03T12:07:28.712Z,314.00
2022-11-03T12:08:28.700Z,310.00
2022-11-03T12:09:28.793Z,294.00
2022-11-03T12:10:28.711Z,276.00
2022-11-03T12:11:28.694Z,370.00
2022-11-03T12:12:28.661Z,439.00
2022-11-03T12:13:28.643Z,430.00
2022-11-03T12:14:28.642Z,407.00
2022-11-03T12:15:28.650Z,399.00
2022-11-03T12:16:28.614Z,469.00
2022-11-03T12:17:28.602Z,545.00
2022-11-03T12:18:28.595Z,632.00
2022-11-03T12:19:28.581Z,539.00
2022-11-03T12:20:28.573Z,1044.00
2022-11-03T12:21:28.575Z,994.00
2022-11-03T12:22:28.563Z,1254.00
2022-11-03T12:23:28.537Z,1255.00
2022-11-03T12:24:28.537Z,1036.00
2022-11-03T12:25:28.516Z,745.00
2022-11-03T12:26:28.526Z,592.00
2022-11-03T12:27:28.855Z,692.00
2022-11-03T12:28:28.487Z,721.00
2022-11-03T12:29:28.478Z,670.00
2022-11-03T12:30:28.464Z,633.00
2022-11-03T12:31:31.660Z,611.00
2022-11-03T12:32:33.511Z,571.00
2022-11-03T12:33:29.441Z,586.00
2022-11-03T12:34:28.428Z,603.00
2022-11-03T12:35:28.410Z,588.00
2022-11-03T12:36:28.427Z,591.00
2022-11-03T12:37:28.400Z,624.00
2022-11-03T12:38:28.380Z,601.00
2022-11-03T12:39:28.362Z,562.00
2022-11-03T12:40:28.364Z,561.00
2022-11-03T12:41:28.373Z,568.00
2022-11-03T12:42:28.362Z,547.00
2022-11-03T12:43:29.153Z,515.00
2022-11-03T12:44:28.431Z,526.00
2022-11-03T12:45:28.340Z,517.00
2022-11-03T12:46:28.333Z,488.00
2022-11-03T12:47:28.284Z,480.00
2022-11-03T12:48:28.278Z,492.00
2022-11-03T12:49:28.254Z,478.00
2022-11-03T12:50:28.254Z,516.00
2022-11-03T12:51:28.254Z,516.00
2022-11-03T12:52:28.237Z,484.00
2022-11-03T12:53:28.217Z,495.00
2022-11-03T12:54:28.219Z,520.00
2022-11-03T12:56:28.207Z,593.00